Time;durP1;ratioP1;P1;durP2;ratioP2;P2;SDS_P1;SDS_P2;PMS_P1;PMS_P2;Temp;Humidity;BMP_temperature;BMP_pressure;BME280_temperature;BME280_humidity;BME280_pressure;Samples;Min_cycle;Max_cycle;Signal;HPM_P1;HPM_P2
2023/09/09 00:00:51;;;;;;;6.78;6.07;;;;;;;;;;5025800;28;20430;-70
2023/09/09 00:03:19;;;;;;;8.43;6.25;;;;;;;;;;5024430;28;20462;-70
2023/09/09 00:05:46;;;;;;;12.93;7.33;;;;;;;;;;5026243;28;20514;-70
2023/09/09 00:08:13;;;;;;;7.53;5.50;;;;;;;;;;5023644;28;20447;-70
2023/09/09 00:10:40;;;;;;;6.55;5.57;;;;;;;;;;5023175;28;20430;-70
2023/09/09 00:13:09;;;;;;;8.80;5.60;;;;;;;;;;5026208;28;20561;-70
2023/09/09 00:15:36;;;;;;;6.38;5.60;;;;;;;;;;5024903;28;20430;-70
2023/09/09 00:18:04;;;;;;;6.68;5.50;;;;;;;;;;5024892;28;20427;-70
2023/09/09 00:20:33;;;;;;;6.28;5.65;;;;;;;;;;5022040;28;20488;-70
2023/09/09 00:23:10;;;;;;;6.35;5.60;;;;;;;;;;5022421;28;20442;-70
2023/09/09 00:25:37;;;;;;;6.50;5.85;;;;;;;;;;5024907;28;20439;-70
2023/09/09 00:28:05;;;;;;;7.85;5.93;;;;;;;;;;5026330;28;20522;-70
2023/09/09 00:30:32;;;;;;;6.72;5.95;;;;;;;;;;5026637;28;20438;-70
2023/09/09 00:33:00;;;;;;;8.63;5.70;;;;;;;;;;5024651;28;20430;-70
2023/09/09 00:35:27;;;;;;;6.20;5.35;;;;;;;;;;5017828;28;20449;-70
2023/09/09 00:37:55;;;;;;;6.75;5.20;;;;;;;;;;5048112;28;20836;-70
2023/09/09 00:40:22;;;;;;;8.80;5.75;;;;;;;;;;5028429;28;20434;-69
2023/09/09 00:42:49;;;;;;;6.25;5.65;;;;;;;;;;5027616;28;20520;-70
2023/09/09 00:45:17;;;;;;;7.65;5.28;;;;;;;;;;5023307;28;20510;-69
2023/09/09 00:47:45;;;;;;;10.60;6.05;;;;;;;;;;5021329;28;20470;-69
2023/09/09 00:50:13;;;;;;;6.75;5.40;;;;;;;;;;5023752;28;20923;-69
2023/09/09 00:52:42;;;;;;;6.18;5.28;;;;;;;;;;5022998;28;20436;-70
2023/09/09 00:55:10;;;;;;;6.43;5.40;;;;;;;;;;5026077;28;20423;-70
2023/09/09 00:57:37;;;;;;;6.68;5.30;;;;;;;;;;5022983;28;20426;-70
2023/09/09 01:00:09;;;;;;;6.00;5.40;;;;;;;;;;5024663;28;20429;-70
2023/09/09 01:02:43;;;;;;;7.75;5.60;;;;;;;;;;5024001;28;20430;-70
2023/09/09 01:05:11;;;;;;;6.30;5.65;;;;;;;;;;5021874;28;20423;-70
2023/09/09 01:07:43;;;;;;;7.63;5.43;;;;;;;;;;5039031;28;20462;-70
2023/09/09 01:10:10;;;;;;;5.65;5.15;;;;;;;;;;5028439;28;20463;-70
2023/09/09 01:12:45;;;;;;;5.82;5.15;;;;;;;;;;5023116;28;20945;-71
2023/09/09 01:15:13;;;;;;;5.85;5.25;;;;;;;;;;5020164;28;20442;-70
2023/09/09 01:17:48;;;;;;;7.65;5.57;;;;;;;;;;5015898;28;20441;-71
2023/09/09 01:20:19;;;;;;;7.25;5.22;;;;;;;;;;5024246;28;20532;-70
2023/09/09 01:22:50;;;;;;;7.90;6.07;;;;;;;;;;5028501;28;20970;-70
2023/09/09 01:25:17;;;;;;;8.70;6.18;;;;;;;;;;5031380;28;20430;-71
2023/09/09 01:27:44;;;;;;;6.80;5.53;;;;;;;;;;5032748;28;20433;-70
2023/09/09 01:30:11;;;;;;;8.95;5.80;;;;;;;;;;5031480;28;20437;-71
2023/09/09 01:32:39;;;;;;;7.05;5.53;;;;;;;;;;5018626;28;20430;-71
2023/09/09 01:35:07;;;;;;;6.85;6.10;;;;;;;;;;5021596;28;20434;-71
2023/09/09 01:37:35;;;;;;;6.17;5.40;;;;;;;;;;5027936;28;20430;-71
2023/09/09 01:40:08;;;;;;;6.22;5.30;;;;;;;;;;5027655;28;20457;-71
2023/09/09 01:42:36;;;;;;;6.35;5.60;;;;;;;;;;5023968;28;20497;-71
2023/09/09 01:45:04;;;;;;;59.50;53.08;;;;;;;;;;5026025;28;20433;-71
2023/09/09 01:47:31;;;;;;;6.50;5.00;;;;;;;;;;5037459;28;20447;-71
2023/09/09 01:49:58;;;;;;;5.85;5.25;;;;;;;;;;5028840;28;20484;-71
2023/09/09 01:52:25;;;;;;;804.90;505.52;;;;;;;;;;5029315;28;20430;-71
2023/09/09 01:54:52;;;;;;;774.90;489.15;;;;;;;;;;5054155;28;20447;-71
2023/09/09 01:57:21;;;;;;;6.32;4.97;;;;;;;;;;5024943;28;20497;-71
2023/09/09 01:59:49;;;;;;;104.65;90.15;;;;;;;;;;5025924;28;21043;-70
2023/09/09 02:02:16;;;;;;;819.28;732.10;;;;;;;;;;5025589;28;20427;-71
2023/09/09 02:04:43;;;;;;;815.10;729.58;;;;;;;;;;5031048;28;20430;-71
2023/09/09 02:07:11;;;;;;;820.17;734.33;;;;;;;;;;5029183;28;20437;-71
2023/09/09 02:09:38;;;;;;;57.08;51.90;;;;;;;;;;5028336;28;20854;-70
2023/09/09 02:12:06;;;;;;;5.63;5.10;;;;;;;;;;5030335;28;20453;-70
2023/09/09 02:14:33;;;;;;;6.97;5.33;;;;;;;;;;5026727;28;20435;-70
2023/09/09 02:17:00;;;;;;;7.40;6.55;;;;;;;;;;5025605;28;20503;-70
2023/09/09 02:19:27;;;;;;;6.20;5.55;;;;;;;;;;5030855;28;20442;-70
2023/09/09 02:21:55;;;;;;;8.05;5.30;;;;;;;;;;5020372;28;20431;-70
2023/09/09 02:24:22;;;;;;;6.38;5.63;;;;;;;;;;5026036;28;20442;-70
2023/09/09 02:26:50;;;;;;;7.15;5.03;;;;;;;;;;5029715;28;20435;-70
2023/09/09 02:29:17;;;;;;;6.28;5.28;;;;;;;;;;5029237;28;20434;-70
2023/09/09 02:31:44;;;;;;;7.23;5.30;;;;;;;;;;5047501;28;20527;-70
2023/09/09 02:34:11;;;;;;;5.87;4.80;;;;;;;;;;5026375;28;20472;-70
2023/09/09 02:36:41;;;;;;;6.35;5.57;;;;;;;;;;5028056;28;20538;-70
2023/09/09 02:39:08;;;;;;;6.20;5.60;;;;;;;;;;5025453;28;20927;-70
2023/09/09 02:41:36;;;;;;;26.15;23.45;;;;;;;;;;5026946;28;20458;-70
2023/09/09 02:44:03;;;;;;;5.47;4.97;;;;;;;;;;5023927;28;20510;-70
2023/09/09 02:46:30;;;;;;;8.18;6.63;;;;;;;;;;5027462;28;20518;-70
2023/09/09 02:48:57;;;;;;;10.23;9.32;;;;;;;;;;5026907;28;20509;-70
2023/09/09 02:51:27;;;;;;;111.75;102.13;;;;;;;;;;5026952;28;20445;-70
2023/09/09 02:53:54;;;;;;;10.68;9.55;;;;;;;;;;5028612;28;20467;-70
2023/09/09 02:56:21;;;;;;;18.15;16.30;;;;;;;;;;5030048;28;20433;-70
2023/09/09 02:58:49;;;;;;;144.85;133.00;;;;;;;;;;5032018;28;20462;-70
2023/09/09 03:01:16;;;;;;;9.43;5.47;;;;;;;;;;5020607;28;20431;-70
2023/09/09 03:03:43;;;;;;;419.23;380.17;;;;;;;;;;5025174;28;20435;-70
2023/09/09 03:06:12;;;;;;;5.18;4.68;;;;;;;;;;5025636;28;20435;-70
2023/09/09 03:08:44;;;;;;;15.73;14.48;;;;;;;;;;5025366;28;20441;-70
2023/09/09 03:11:11;;;;;;;30.05;27.52;;;;;;;;;;5040524;28;20435;-70
2023/09/09 03:13:38;;;;;;;5.88;5.22;;;;;;;;;;5025250;28;20435;-70
2023/09/09 03:16:06;;;;;;;7.00;5.28;;;;;;;;;;5023455;28;20445;-70
2023/09/09 03:18:33;;;;;;;7.72;7.00;;;;;;;;;;5026873;28;20423;-70
2023/09/09 03:21:02;;;;;;;5.93;5.03;;;;;;;;;;5025433;28;20439;-70
2023/09/09 03:23:29;;;;;;;5.38;4.88;;;;;;;;;;5025369;28;20481;-70
2023/09/09 03:25:56;;;;;;;6.72;5.15;;;;;;;;;;5028848;28;20445;-70
2023/09/09 03:28:23;;;;;;;6.63;5.65;;;;;;;;;;5023026;28;20920;-70
2023/09/09 03:30:54;;;;;;;6.22;5.63;;;;;;;;;;5029664;28;20477;-70
2023/09/09 03:33:21;;;;;;;6.57;5.30;;;;;;;;;;5027622;28;20462;-70
2023/09/09 03:35:49;;;;;;;10.77;8.48;;;;;;;;;;5028747;28;20593;-70
2023/09/09 03:38:16;;;;;;;9.73;8.73;;;;;;;;;;5024821;28;20435;-70
2023/09/09 03:40:46;;;;;;;5.70;4.93;;;;;;;;;;5028727;28;20427;-70
2023/09/09 03:43:14;;;;;;;7.70;6.43;;;;;;;;;;5033872;28;20479;-70
2023/09/09 03:45:41;;;;;;;6.60;5.90;;;;;;;;;;5035184;28;20439;-70
2023/09/09 03:48:08;;;;;;;7.55;5.57;;;;;;;;;;5028911;28;22329;-70
2023/09/09 03:50:36;;;;;;;6.63;5.57;;;;;;;;;;5027704;28;20439;-71
2023/09/09 03:53:03;;;;;;;6.47;5.18;;;;;;;;;;5026871;28;20434;-70
2023/09/09 03:55:30;;;;;;;6.43;5.80;;;;;;;;;;5026075;28;20489;-70
2023/09/09 03:58:00;;;;;;;7.85;6.57;;;;;;;;;;5024814;28;20501;-70
2023/09/09 04:00:28;;;;;;;9.50;6.40;;;;;;;;;;5027032;28;20462;-70
2023/09/09 04:02:55;;;;;;;7.95;6.57;;;;;;;;;;5015935;28;20894;-69
2023/09/09 04:05:24;;;;;;;7.43;6.28;;;;;;;;;;5025175;28;20443;-70
2023/09/09 04:07:52;;;;;;;7.63;6.27;;;;;;;;;;5024082;28;20431;-70
2023/09/09 04:10:19;;;;;;;6.72;6.07;;;;;;;;;;5028456;28;20477;-70
2023/09/09 04:12:46;;;;;;;8.02;7.22;;;;;;;;;;5027744;28;20535;-70
2023/09/09 04:15:14;;;;;;;7.95;6.80;;;;;;;;;;5025326;28;20989;-70
2023/09/09 04:17:41;;;;;;;9.70;6.47;;;;;;;;;;5025880;28;20832;-70
2023/09/09 04:20:11;;;;;;;8.60;6.10;;;;;;;;;;5030221;28;20425;-70
2023/09/09 04:22:38;;;;;;;8.18;6.10;;;;;;;;;;5018863;28;21006;-70
2023/09/09 04:25:05;;;;;;;7.70;6.28;;;;;;;;;;5017546;28;20530;-70
2023/09/09 04:27:32;;;;;;;6.90;5.75;;;;;;;;;;5025356;28;20431;-70
2023/09/09 04:29:59;;;;;;;6.93;6.22;;;;;;;;;;5022879;28;20775;-70
2023/09/09 04:32:31;;;;;;;6.70;5.95;;;;;;;;;;5024703;28;20466;-70
2023/09/09 04:34:58;;;;;;;7.43;6.03;;;;;;;;;;5023777;28;20516;-70
2023/09/09 04:37:27;;;;;;;6.82;6.05;;;;;;;;;;5026033;28;20430;-70
2023/09/09 04:39:54;;;;;;;5.93;5.40;;;;;;;;;;5024237;28;20425;-70
2023/09/09 04:42:22;;;;;;;8.07;6.43;;;;;;;;;;5018778;28;20435;-70
2023/09/09 04:44:49;;;;;;;8.93;6.13;;;;;;;;;;5024562;28;20435;-69
2023/09/09 04:47:16;;;;;;;9.15;7.18;;;;;;;;;;5030482;28;20474;-70
2023/09/09 04:49:43;;;;;;;9.35;7.78;;;;;;;;;;5024578;28;20435;-70
2023/09/09 04:52:10;;;;;;;8.45;7.30;;;;;;;;;;5025122;28;20529;-70
2023/09/09 04:54:38;;;;;;;13.07;10.02;;;;;;;;;;5024155;28;20457;-70
2023/09/09 04:57:05;;;;;;;13.18;8.57;;;;;;;;;;5025661;28;20497;-71
2023/09/09 04:59:33;;;;;;;10.85;6.93;;;;;;;;;;5031141;28;20454;-70
2023/09/09 05:02:00;;;;;;;7.45;6.38;;;;;;;;;;5039970;28;20425;-70
2023/09/09 05:04:27;;;;;;;7.07;6.43;;;;;;;;;;5029424;28;20434;-70
2023/09/09 05:06:55;;;;;;;7.22;5.70;;;;;;;;;;5056458;28;20453;-71
2023/09/09 05:09:22;;;;;;;9.57;6.25;;;;;;;;;;5037463;28;20514;-71
2023/09/09 05:11:49;;;;;;;10.52;6.53;;;;;;;;;;5041865;28;20502;-70
2023/09/09 05:14:16;;;;;;;7.70;6.18;;;;;;;;;;5032185;28;21463;-71
2023/09/09 05:16:43;;;;;;;6.68;5.93;;;;;;;;;;5028521;28;20608;-70
2023/09/09 05:19:11;;;;;;;6.35;5.63;;;;;;;;;;5032037;28;20442;-70
2023/09/09 05:21:38;;;;;;;6.47;5.88;;;;;;;;;;5028928;28;20433;-70
2023/09/09 05:24:05;;;;;;;6.63;5.70;;;;;;;;;;5026892;28;20530;-71
2023/09/09 05:26:35;;;;;;;6.55;5.80;;;;;;;;;;5021565;28;20434;-70
2023/09/09 05:29:03;;;;;;;6.25;5.43;;;;;;;;;;5024792;28;20434;-71
2023/09/09 05:31:30;;;;;;;6.40;5.53;;;;;;;;;;5017732;28;20436;-71
2023/09/09 05:33:59;;;;;;;8.32;6.18;;;;;;;;;;5024584;28;20437;-71
2023/09/09 05:36:26;;;;;;;6.57;5.75;;;;;;;;;;5030636;28;20956;-71
2023/09/09 05:38:59;;;;;;;9.90;5.95;;;;;;;;;;5029960;28;20435;-69
2023/09/09 05:41:29;;;;;;;7.50;6.18;;;;;;;;;;5027176;28;20437;-69
2023/09/09 05:43:59;;;;;;;10.50;6.25;;;;;;;;;;5023042;28;20441;-69
2023/09/09 05:46:26;;;;;;;11.05;6.50;;;;;;;;;;5027121;28;20931;-68
2023/09/09 05:48:54;;;;;;;7.22;6.40;;;;;;;;;;5007359;28;20430;-69
2023/09/09 05:51:21;;;;;;;6.67;6.07;;;;;;;;;;5023926;28;20893;-69
2023/09/09 05:53:51;;;;;;;7.60;6.05;;;;;;;;;;5024569;28;20466;-69
2023/09/09 05:56:23;;;;;;;7.35;6.00;;;;;;;;;;5013443;28;20486;-68
2023/09/09 05:58:51;;;;;;;6.50;5.90;;;;;;;;;;5014897;28;20435;-69
2023/09/09 06:01:18;;;;;;;6.67;5.30;;;;;;;;;;5020450;28;20436;-69
2023/09/09 06:03:45;;;;;;;285.27;261.63;;;;;;;;;;5030375;28;20446;-69
2023/09/09 06:06:12;;;;;;;6.37;5.27;;;;;;;;;;5022602;28;20442;-69
2023/09/09 06:08:40;;;;;;;6.15;5.38;;;;;;;;;;5024782;28;20458;-69
2023/09/09 06:11:10;;;;;;;5.83;4.77;;;;;;;;;;5030995;28;20492;-69
2023/09/09 06:13:37;;;;;;;7.05;5.35;;;;;;;;;;5020844;28;20496;-70
2023/09/09 06:16:04;;;;;;;7.13;5.03;;;;;;;;;;5029282;28;20500;-69
2023/09/09 06:18:32;;;;;;;7.90;5.20;;;;;;;;;;5023281;28;20438;-69
2023/09/09 06:20:59;;;;;;;6.65;5.20;;;;;;;;;;5021552;28;20542;-69
2023/09/09 06:23:26;;;;;;;5.72;5.15;;;;;;;;;;5020051;28;20487;-70
2023/09/09 06:25:53;;;;;;;6.23;5.20;;;;;;;;;;5020784;28;20460;-69
2023/09/09 06:28:23;;;;;;;361.10;329.67;;;;;;;;;;5027742;28;20571;-68
2023/09/09 06:30:50;;;;;;;34.13;30.83;;;;;;;;;;5025086;28;21047;-69
2023/09/09 06:33:17;;;;;;;7.30;6.55;;;;;;;;;;5025496;28;20515;-69
2023/09/09 06:35:48;;;;;;;13.95;10.77;;;;;;;;;;5026109;28;20433;-69
2023/09/09 06:38:21;;;;;;;5.47;4.70;;;;;;;;;;5029320;28;20441;-69
2023/09/09 06:40:48;;;;;;;4.90;4.40;;;;;;;;;;5030810;28;20446;-71
2023/09/09 06:43:18;;;;;;;6.00;4.70;;;;;;;;;;5033465;28;20430;-69
2023/09/09 06:45:45;;;;;;;6.30;5.10;;;;;;;;;;5022573;28;20441;-69
2023/09/09 06:48:17;;;;;;;8.00;4.95;;;;;;;;;;5038679;28;20425;-69
2023/09/09 06:50:47;;;;;;;6.72;4.95;;;;;;;;;;5026678;28;20517;-69
2023/09/09 06:53:15;;;;;;;5.72;5.05;;;;;;;;;;5028311;28;20518;-72
2023/09/09 06:55:46;;;;;;;5.37;4.63;;;;;;;;;;5026223;28;20435;-69
2023/09/09 06:58:14;;;;;;;5.20;4.70;;;;;;;;;;5020550;28;20462;-69
2023/09/09 07:00:41;;;;;;;6.28;4.93;;;;;;;;;;5025472;28;21036;-71
2023/09/09 07:03:11;;;;;;;4.78;4.38;;;;;;;;;;5021483;28;20434;-69
2023/09/09 07:05:39;;;;;;;5.95;4.70;;;;;;;;;;5027969;28;20439;-71
2023/09/09 07:08:06;;;;;;;4.65;4.25;;;;;;;;;;5028302;28;20438;-70
2023/09/09 07:10:33;;;;;;;5.63;4.63;;;;;;;;;;5031304;28;20439;-70
2023/09/09 07:13:00;;;;;;;5.37;4.57;;;;;;;;;;5028510;28;20461;-69
2023/09/09 07:15:29;;;;;;;4.88;4.45;;;;;;;;;;5020303;28;20437;-70
2023/09/09 07:17:57;;;;;;;4.97;4.45;;;;;;;;;;5022857;28;20426;-70
2023/09/09 07:20:24;;;;;;;5.40;4.90;;;;;;;;;;5025603;28;20440;-71
2023/09/09 07:22:57;;;;;;;5.65;4.80;;;;;;;;;;5022860;28;20519;-70
2023/09/09 07:25:24;;;;;;;5.45;4.88;;;;;;;;;;5024988;28;21124;-70
2023/09/09 07:27:51;;;;;;;6.27;4.10;;;;;;;;;;5024978;28;20430;-71
2023/09/09 07:30:19;;;;;;;4.80;4.40;;;;;;;;;;5022923;28;20490;-70
2023/09/09 07:32:46;;;;;;;5.00;4.60;;;;;;;;;;5028643;28;20513;-70
2023/09/09 07:35:13;;;;;;;5.18;4.40;;;;;;;;;;5030919;28;20435;-69
2023/09/09 07:37:40;;;;;;;5.00;4.53;;;;;;;;;;5029450;28;20865;-71
2023/09/09 07:40:08;;;;;;;5.03;4.53;;;;;;;;;;5024904;28;20489;-74
2023/09/09 07:42:35;;;;;;;4.93;4.53;;;;;;;;;;5028722;28;20472;-70
2023/09/09 07:45:02;;;;;;;4.38;3.97;;;;;;;;;;5028264;28;20981;-70
2023/09/09 07:47:32;;;;;;;4.70;4.32;;;;;;;;;;5026795;28;20440;-68
2023/09/09 07:49:59;;;;;;;5.38;4.32;;;;;;;;;;5019572;28;20434;-68
2023/09/09 07:52:26;;;;;;;5.40;4.53;;;;;;;;;;5020582;28;20514;-70
2023/09/09 07:54:53;;;;;;;4.90;4.20;;;;;;;;;;5021966;28;20526;-70
2023/09/09 07:57:20;;;;;;;4.90;4.15;;;;;;;;;;5016010;28;20429;-70
2023/09/09 07:59:47;;;;;;;4.47;4.10;;;;;;;;;;5016342;28;20484;-70
2023/09/09 08:02:15;;;;;;;4.63;4.03;;;;;;;;;;5019558;28;20480;-71
2023/09/09 08:04:42;;;;;;;5.13;4.00;;;;;;;;;;5011251;28;20484;-70
2023/09/09 08:07:09;;;;;;;5.50;4.27;;;;;;;;;;5022490;28;20525;-70
2023/09/09 08:09:36;;;;;;;4.40;4.05;;;;;;;;;;5022813;28;20506;-69
2023/09/09 08:12:04;;;;;;;4.70;4.30;;;;;;;;;;5025830;28;20438;-69
2023/09/09 08:14:31;;;;;;;4.60;4.20;;;;;;;;;;5023677;28;21003;-70
2023/09/09 08:16:58;;;;;;;5.22;4.65;;;;;;;;;;5022393;28;20504;-69
2023/09/09 08:19:29;;;;;;;4.75;4.30;;;;;;;;;;5024869;28;20485;-69
2023/09/09 08:21:56;;;;;;;5.93;4.00;;;;;;;;;;5020720;28;20912;-68
2023/09/09 08:24:23;;;;;;;4.63;4.03;;;;;;;;;;5039540;28;20477;-70
2023/09/09 08:26:50;;;;;;;4.68;4.15;;;;;;;;;;5016976;28;20442;-71
2023/09/09 08:29:20;;;;;;;4.72;4.15;;;;;;;;;;5020062;28;20435;-69
2023/09/09 08:31:47;;;;;;;6.07;4.53;;;;;;;;;;5023478;28;20437;-69
2023/09/09 08:34:17;;;;;;;5.15;4.15;;;;;;;;;;5016482;28;20957;-69
2023/09/09 08:36:44;;;;;;;6.90;4.50;;;;;;;;;;5017023;28;20516;-69
2023/09/09 08:39:14;;;;;;;4.95;4.43;;;;;;;;;;5020379;28;20431;-70
2023/09/09 08:41:49;;;;;;;5.07;4.45;;;;;;;;;;5019562;28;20481;-69
2023/09/09 08:44:25;;;;;;;5.50;4.97;;;;;;;;;;5014812;28;20427;-71
2023/09/09 08:46:53;;;;;;;5.53;5.13;;;;;;;;;;5025084;28;20531;-69
2023/09/09 08:49:23;;;;;;;6.05;5.07;;;;;;;;;;5035986;28;20464;-70
2023/09/09 08:51:53;;;;;;;5.93;4.50;;;;;;;;;;5026828;28;20486;-69
2023/09/09 08:54:20;;;;;;;5.10;4.60;;;;;;;;;;5024173;28;21194;-68
2023/09/09 08:56:48;;;;;;;6.38;4.97;;;;;;;;;;5017873;28;20897;-70
2023/09/09 08:59:16;;;;;;;6.03;4.53;;;;;;;;;;5024890;28;20458;-69
2023/09/09 09:01:43;;;;;;;5.60;5.10;;;;;;;;;;5022935;28;20425;-69
2023/09/09 09:04:14;;;;;;;5.68;5.18;;;;;;;;;;5036030;28;20520;-71
2023/09/09 09:06:41;;;;;;;5.28;4.82;;;;;;;;;;5021503;28;20966;-70
2023/09/09 09:09:10;;;;;;;5.03;4.53;;;;;;;;;;5024839;28;20441;-70
2023/09/09 09:11:37;;;;;;;6.05;4.78;;;;;;;;;;5030815;28;20462;-70
2023/09/09 09:14:07;;;;;;;5.75;4.60;;;;;;;;;;5023345;28;20431;-70
2023/09/09 09:16:41;;;;;;;8.93;5.57;;;;;;;;;;5043380;28;20981;-70
2023/09/09 09:19:21;;;;;;;5.63;5.10;;;;;;;;;;5041094;28;20806;-70
2023/09/09 09:21:49;;;;;;;8.35;5.13;;;;;;;;;;5020535;28;20431;-70
2023/09/09 09:24:21;;;;;;;5.55;5.05;;;;;;;;;;5018142;28;20477;-70
2023/09/09 09:26:51;;;;;;;7.22;5.25;;;;;;;;;;5036100;28;20460;-69
2023/09/09 09:29:18;;;;;;;6.68;5.65;;;;;;;;;;5040323;28;20439;-70
2023/09/09 09:31:52;;;;;;;6.57;5.47;;;;;;;;;;5049192;28;20476;-71
2023/09/09 09:34:20;;;;;;;7.50;5.18;;;;;;;;;;5027066;28;20823;-71
2023/09/09 09:36:47;;;;;;;5.28;4.82;;;;;;;;;;5035861;28;20544;-71
2023/09/09 09:39:17;;;;;;;6.38;4.90;;;;;;;;;;5024238;28;22348;-72
2023/09/09 09:41:44;;;;;;;5.00;4.60;;;;;;;;;;5027167;28;20517;-70
2023/09/09 09:44:18;;;;;;;5.30;4.80;;;;;;;;;;5025165;28;20438;-72
2023/09/09 09:47:05;;;;;;;864.58;776.80;;;;;;;;;;5024321;28;20433;-71
2023/09/09 09:49:34;;;;;;;83.60;77.10;;;;;;;;;;5023210;28;20516;-71
2023/09/09 09:52:02;;;;;;;1022.45;927.67;;;;;;;;;;5030218;28;20539;-70
2023/09/09 09:54:33;;;;;;;161.35;148.27;;;;;;;;;;5016717;28;20427;-71
2023/09/09 09:57:01;;;;;;;5.88;5.38;;;;;;;;;;5031702;28;20494;-71
2023/09/09 09:59:33;;;;;;;53.58;34.72;;;;;;;;;;5032487;28;20431;-73
2023/09/09 10:02:02;;;;;;;100.65;91.25;;;;;;;;;;5031184;28;20469;-71
2023/09/09 10:04:34;;;;;;;862.53;788.43;;;;;;;;;;5032433;28;20437;-71
2023/09/09 10:07:04;;;;;;;1012.42;917.22;;;;;;;;;;5035779;28;20435;-71
2023/09/09 10:09:54;;;;;;;390.00;356.02;;;;;;;;;;5029035;28;20548;-71
2023/09/09 10:12:25;;;;;;;8.70;6.75;;;;;;;;;;5032869;28;20480;-72
2023/09/09 10:15:13;;;;;;;7.55;6.75;;;;;;;;;;5026229;28;20935;-72
2023/09/09 10:17:40;;;;;;;7.60;5.82;;;;;;;;;;5037851;28;21084;-71
2023/09/09 10:20:08;;;;;;;7.22;6.38;;;;;;;;;;5020522;28;20521;-71
2023/09/09 10:22:36;;;;;;;9.73;6.63;;;;;;;;;;5030547;28;20540;-72
2023/09/09 10:25:04;;;;;;;8.27;6.07;;;;;;;;;;5027462;28;20453;-71
2023/09/09 10:27:31;;;;;;;6.75;5.60;;;;;;;;;;5026218;28;20439;-72
2023/09/09 10:30:01;;;;;;;7.13;6.10;;;;;;;;;;5029973;28;20434;-71
2023/09/09 10:32:28;;;;;;;6.55;5.55;;;;;;;;;;5027023;28;20548;-71
2023/09/09 10:34:56;;;;;;;7.95;5.80;;;;;;;;;;5028520;28;20821;-71
2023/09/09 10:37:24;;;;;;;6.93;5.63;;;;;;;;;;5028014;28;20469;-71
2023/09/09 10:39:51;;;;;;;6.13;5.47;;;;;;;;;;5033923;28;20452;-72
2023/09/09 10:42:19;;;;;;;6.07;5.55;;;;;;;;;;5029031;28;20426;-73
2023/09/09 10:44:49;;;;;;;5.68;5.03;;;;;;;;;;5019814;28;20500;-72
2023/09/09 10:47:17;;;;;;;6.35;5.85;;;;;;;;;;5031987;28;20442;-71
2023/09/09 10:49:44;;;;;;;8.13;6.13;;;;;;;;;;5030738;28;21179;-72
2023/09/09 10:52:31;;;;;;;6.37;5.10;;;;;;;;;;5031100;28;20444;-71
2023/09/09 10:55:11;;;;;;;6.03;5.43;;;;;;;;;;5036606;28;20520;-72
2023/09/09 10:57:39;;;;;;;7.10;6.10;;;;;;;;;;5025819;28;20648;-72
2023/09/09 11:00:06;;;;;;;7.88;6.50;;;;;;;;;;5042057;28;20911;-71
2023/09/09 11:02:43;;;;;;;6.47;5.53;;;;;;;;;;5029282;28;20494;-72
2023/09/09 11:05:11;;;;;;;7.15;6.22;;;;;;;;;;5029640;28;20931;-72
2023/09/09 11:07:39;;;;;;;6.83;6.10;;;;;;;;;;5022739;28;21020;-73
2023/09/09 11:10:07;;;;;;;7.72;6.13;;;;;;;;;;5021609;28;20504;-74
2023/09/09 11:12:34;;;;;;;6.93;5.30;;;;;;;;;;5030657;28;20770;-72
2023/09/09 11:15:09;;;;;;;6.53;5.97;;;;;;;;;;5027691;28;20434;-72
2023/09/09 11:17:36;;;;;;;6.18;5.57;;;;;;;;;;5022382;28;20485;-72
2023/09/09 11:20:10;;;;;;;6.38;5.60;;;;;;;;;;5027472;28;20562;-72
2023/09/09 11:22:38;;;;;;;5.33;4.93;;;;;;;;;;5025690;28;20556;-73
2023/09/09 11:25:06;;;;;;;5.78;5.30;;;;;;;;;;5025380;28;20443;-73
2023/09/09 11:27:37;;;;;;;5.80;5.32;;;;;;;;;;5035815;28;20429;-71
2023/09/09 11:30:05;;;;;;;5.47;5.03;;;;;;;;;;5032823;28;21479;-72
2023/09/09 11:32:32;;;;;;;5.78;5.38;;;;;;;;;;5029720;28;20442;-76
2023/09/09 11:35:00;;;;;;;6.13;5.22;;;;;;;;;;5036837;28;20439;-75
2023/09/09 11:37:27;;;;;;;5.40;4.90;;;;;;;;;;5020006;28;21012;-74
2023/09/09 11:39:57;;;;;;;5.70;5.20;;;;;;;;;;5032796;28;20446;-76
2023/09/09 11:42:24;;;;;;;6.82;5.13;;;;;;;;;;5021444;28;20459;-74
2023/09/09 11:44:52;;;;;;;6.20;5.60;;;;;;;;;;5026673;28;20657;-75
2023/09/09 11:47:19;;;;;;;6.53;5.82;;;;;;;;;;5027020;28;20434;-75
2023/09/09 11:49:50;;;;;;;6.13;5.50;;;;;;;;;;5031065;28;20447;-75
2023/09/09 11:52:20;;;;;;;5.43;4.93;;;;;;;;;;5023683;28;20442;-75
2023/09/09 11:54:49;;;;;;;5.38;4.88;;;;;;;;;;5025639;28;20437;-76
2023/09/09 11:57:16;;;;;;;4.90;4.50;;;;;;;;;;5019734;28;20565;-75
2023/09/09 11:59:44;;;;;;;5.10;4.70;;;;;;;;;;5024471;28;20431;-75
2023/09/09 12:02:18;;;;;;;5.05;4.50;;;;;;;;;;5021245;28;20419;-75
2023/09/09 12:04:55;;;;;;;5.78;4.68;;;;;;;;;;5022928;28;20488;-75
2023/09/09 12:07:24;;;;;;;5.68;5.18;;;;;;;;;;5021727;28;20435;-76
2023/09/09 12:09:54;;;;;;;5.10;4.70;;;;;;;;;;5023564;28;20450;-74
2023/09/09 12:12:23;;;;;;;4.85;4.45;;;;;;;;;;5022954;28;20437;-77
2023/09/09 12:14:52;;;;;;;4.65;4.28;;;;;;;;;;5023616;28;20600;-75
2023/09/09 12:17:22;;;;;;;4.43;4.13;;;;;;;;;;5024911;28;20435;-75
2023/09/09 12:19:59;;;;;;;5.00;4.60;;;;;;;;;;5020290;28;20435;-76
2023/09/09 12:22:33;;;;;;;5.20;4.68;;;;;;;;;;5024297;28;20438;-73
2023/09/09 12:25:07;;;;;;;5.97;4.97;;;;;;;;;;5026527;28;20440;-75
2023/09/09 12:27:41;;;;;;;5.13;4.72;;;;;;;;;;5024008;28;20526;-75
2023/09/09 12:30:28;;;;;;;6.03;4.97;;;;;;;;;;5018481;28;20453;-76
2023/09/09 12:32:55;;;;;;;4.70;4.40;;;;;;;;;;5025457;28;20433;-76
2023/09/09 12:35:26;;;;;;;5.47;5.00;;;;;;;;;;5039817;28;20437;-74
2023/09/09 12:37:57;;;;;;;4.88;4.53;;;;;;;;;;5026186;28;20803;-75
2023/09/09 12:40:24;;;;;;;5.07;4.57;;;;;;;;;;5024653;28;20446;-75
2023/09/09 12:42:54;;;;;;;4.80;4.40;;;;;;;;;;5026500;28;20429;-74
2023/09/09 12:45:24;;;;;;;4.90;3.80;;;;;;;;;;5021711;28;20445;-75
2023/09/09 12:47:52;;;;;;;6.10;4.05;;;;;;;;;;5025221;28;20520;-75
2023/09/09 12:50:19;;;;;;;4.68;4.30;;;;;;;;;;5024953;28;20427;-73
2023/09/09 12:52:46;;;;;;;4.70;4.30;;;;;;;;;;5029276;28;20424;-76
2023/09/09 12:55:14;;;;;;;4.67;4.27;;;;;;;;;;5026503;28;20429;-75
2023/09/09 12:57:42;;;;;;;4.20;3.90;;;;;;;;;;5035013;28;20430;-75
2023/09/09 13:00:09;;;;;;;4.15;3.83;;;;;;;;;;5026715;28;20434;-75
2023/09/09 13:02:36;;;;;;;6.50;4.25;;;;;;;;;;5019161;28;20436;-74
2023/09/09 13:05:04;;;;;;;4.50;4.15;;;;;;;;;;5027560;28;20522;-75
2023/09/09 13:07:31;;;;;;;4.50;4.10;;;;;;;;;;5022309;28;20464;-75
2023/09/09 13:10:00;;;;;;;4.43;4.03;;;;;;;;;;5024596;28;20449;-76
2023/09/09 13:12:30;;;;;;;4.43;4.13;;;;;;;;;;5031817;28;20442;-74
2023/09/09 13:14:58;;;;;;;4.68;4.38;;;;;;;;;;5024760;28;20835;-75
2023/09/09 13:17:25;;;;;;;5.15;4.47;;;;;;;;;;5030249;28;20560;-75
2023/09/09 13:19:52;;;;;;;4.47;4.18;;;;;;;;;;5031387;28;20983;-74
2023/09/09 13:22:19;;;;;;;4.68;4.28;;;;;;;;;;5030693;28;20426;-76
2023/09/09 13:24:46;;;;;;;6.85;4.47;;;;;;;;;;5021934;28;20427;-75
2023/09/09 13:27:18;;;;;;;4.88;4.20;;;;;;;;;;5028612;28;20911;-75
2023/09/09 13:29:46;;;;;;;4.70;4.15;;;;;;;;;;5025732;28;20434;-75
2023/09/09 13:32:15;;;;;;;4.68;4.25;;;;;;;;;;5026063;28;20971;-76
2023/09/09 13:34:42;;;;;;;5.53;4.07;;;;;;;;;;5031094;28;20514;-76
2023/09/09 13:37:09;;;;;;;4.63;4.30;;;;;;;;;;5025748;28;20434;-74
2023/09/09 13:39:40;;;;;;;4.68;4.03;;;;;;;;;;5029500;28;20823;-76
2023/09/09 13:42:08;;;;;;;4.28;3.97;;;;;;;;;;5017898;28;21003;-76
2023/09/09 13:44:37;;;;;;;4.60;4.30;;;;;;;;;;5017125;28;20515;-77
2023/09/09 13:47:24;;;;;;;4.22;3.83;;;;;;;;;;5026711;28;20426;-75
2023/09/09 13:49:52;;;;;;;4.30;4.00;;;;;;;;;;5013472;28;20505;-75
2023/09/09 13:52:19;;;;;;;5.38;4.60;;;;;;;;;;5040019;28;20433;-74
2023/09/09 13:54:46;;;;;;;4.22;3.92;;;;;;;;;;5026982;28;20516;-80
2023/09/09 13:57:13;;;;;;;4.65;4.25;;;;;;;;;;5020733;28;20434;-74
2023/09/09 13:59:42;;;;;;;4.93;4.53;;;;;;;;;;5023939;28;20437;-74
2023/09/09 14:02:09;;;;;;;4.70;4.40;;;;;;;;;;5026053;28;20439;-74
2023/09/09 14:04:37;;;;;;;4.43;4.10;;;;;;;;;;5025621;28;20514;-75
2023/09/09 14:07:04;;;;;;;4.40;4.10;;;;;;;;;;5025090;28;20947;-73
2023/09/09 14:09:31;;;;;;;4.70;4.30;;;;;;;;;;5025087;28;20438;-78
2023/09/09 14:11:58;;;;;;;7.47;4.13;;;;;;;;;;5027636;28;20504;-75
2023/09/09 14:14:26;;;;;;;4.78;4.22;;;;;;;;;;5052220;28;20506;-75
2023/09/09 14:16:56;;;;;;;4.30;3.90;;;;;;;;;;5026427;28;20913;-77
2023/09/09 14:19:23;;;;;;;4.37;3.97;;;;;;;;;;5023486;28;21035;-78
2023/09/09 14:21:51;;;;;;;4.57;4.18;;;;;;;;;;5022506;28;20434;-76
2023/09/09 14:24:18;;;;;;;6.05;5.45;;;;;;;;;;5019376;28;20431;-77
2023/09/09 14:26:45;;;;;;;4.40;4.10;;;;;;;;;;5019174;28;20446;-77
2023/09/09 14:29:12;;;;;;;5.28;4.18;;;;;;;;;;5017759;28;20489;-77
2023/09/09 14:31:39;;;;;;;4.63;4.22;;;;;;;;;;5020012;28;20547;-75
2023/09/09 14:34:07;;;;;;;4.30;4.00;;;;;;;;;;5023382;28;21099;-76
2023/09/09 14:36:36;;;;;;;4.70;4.30;;;;;;;;;;5023710;28;20450;-75
2023/09/09 14:39:04;;;;;;;4.63;4.20;;;;;;;;;;5023483;28;20502;-75
2023/09/09 14:41:34;;;;;;;282.08;255.70;;;;;;;;;;5023848;28;20445;-76
2023/09/09 14:44:04;;;;;;;291.25;262.48;;;;;;;;;;5029796;28;20427;-77
2023/09/09 14:46:32;;;;;;;19.10;17.45;;;;;;;;;;5028947;28;20423;-75